sensor_id;sensor_type;location;lat;lon;timestamp;temperature;humidity
20284;DHT22;10301;50.832;4.080;2023-05-16T00:01:53;9.70;31.10
20284;DHT22;10301;50.832;4.080;2023-05-16T00:04:19;9.80;25.30
20284;DHT22;10301;50.832;4.080;2023-05-16T00:06:45;9.70;22.80
20284;DHT22;10301;50.832;4.080;2023-05-16T00:09:11;9.80;22.80
20284;DHT22;10301;50.832;4.080;2023-05-16T00:11:37;9.70;21.30
20284;DHT22;10301;50.832;4.080;2023-05-16T00:14:02;9.70;29.00
20284;DHT22;10301;50.832;4.080;2023-05-16T00:16:28;9.80;24.00
20284;DHT22;10301;50.832;4.080;2023-05-16T00:18:55;9.80;21.80
20284;DHT22;10301;50.832;4.080;2023-05-16T00:21:22;9.80;20.20
20284;DHT22;10301;50.832;4.080;2023-05-16T00:23:48;10.00;10.40
20284;DHT22;10301;50.832;4.080;2023-05-16T00:26:14;9.70;10.80
20284;DHT22;10301;50.832;4.080;2023-05-16T00:28:39;9.80;17.60
20284;DHT22;10301;50.832;4.080;2023-05-16T00:31:05;9.80;16.80
20284;DHT22;10301;50.832;4.080;2023-05-16T00:33:31;9.80;19.10
20284;DHT22;10301;50.832;4.080;2023-05-16T00:35:56;9.80;17.50
20284;DHT22;10301;50.832;4.080;2023-05-16T00:38:24;9.70;16.20
20284;DHT22;10301;50.832;4.080;2023-05-16T00:40:50;9.70;15.60
20284;DHT22;10301;50.832;4.080;2023-05-16T00:43:15;9.80;12.90
20284;DHT22;10301;50.832;4.080;2023-05-16T00:45:41;9.80;11.50
20284;DHT22;10301;50.832;4.080;2023-05-16T00:48:07;9.90;7.40
20284;DHT22;10301;50.832;4.080;2023-05-16T00:50:35;9.90;6.30
20284;DHT22;10301;50.832;4.080;2023-05-16T00:53:01;9.80;7.70
20284;DHT22;10301;50.832;4.080;2023-05-16T00:55:27;9.80;7.70
20284;DHT22;10301;50.832;4.080;2023-05-16T00:57:52;9.80;9.10
20284;DHT22;10301;50.832;4.080;2023-05-16T01:00:19;9.60;21.70
20284;DHT22;10301;50.832;4.080;2023-05-16T01:02:45;9.70;24.10
20284;DHT22;10301;50.832;4.080;2023-05-16T01:05:11;9.80;17.60
20284;DHT22;10301;50.832;4.080;2023-05-16T01:07:37;9.80;19.90
20284;DHT22;10301;50.832;4.080;2023-05-16T01:10:04;9.40;28.20
20284;DHT22;10301;50.832;4.080;2023-05-16T01:12:36;9.60;34.80
20284;DHT22;10301;50.832;4.080;2023-05-16T01:15:15;9.30;33.60
20284;DHT22;10301;50.832;4.080;2023-05-16T01:21:07;9.40;30.70
20284;DHT22;10301;50.832;4.080;2023-05-16T01:23:51;9.30;35.90
20284;DHT22;10301;50.832;4.080;2023-05-16T01:26:22;9.00;48.20
20284;DHT22;10301;50.832;4.080;2023-05-16T01:28:50;8.80;58.10
20284;DHT22;10301;50.832;4.080;2023-05-16T01:31:16;8.70;65.80
20284;DHT22;10301;50.832;4.080;2023-05-16T01:33:42;8.60;72.60
20284;DHT22;10301;50.832;4.080;2023-05-16T01:41:33;8.90;54.80
20284;DHT22;10301;50.832;4.080;2023-05-16T01:44:09;9.10;56.20
20284;DHT22;10301;50.832;4.080;2023-05-16T01:46:39;9.20;50.80
20284;DHT22;10301;50.832;4.080;2023-05-16T01:52:14;9.10;44.70
20284;DHT22;10301;50.832;4.080;2023-05-16T01:54:44;9.10;41.40
20284;DHT22;10301;50.832;4.080;2023-05-16T01:57:12;8.90;44.30
20284;DHT22;10301;50.832;4.080;2023-05-16T01:59:39;8.90;52.30
20284;DHT22;10301;50.832;4.080;2023-05-16T02:02:07;8.80;57.00
20284;DHT22;10301;50.832;4.080;2023-05-16T02:04:32;8.80;57.90
20284;DHT22;10301;50.832;4.080;2023-05-16T02:06:59;8.90;56.40
20284;DHT22;10301;50.832;4.080;2023-05-16T02:09:26;8.90;55.00
20284;DHT22;10301;50.832;4.080;2023-05-16T02:11:52;8.80;56.00
20284;DHT22;10301;50.832;4.080;2023-05-16T02:14:18;8.90;57.90
20284;DHT22;10301;50.832;4.080;2023-05-16T02:16:43;9.00;54.20
20284;DHT22;10301;50.832;4.080;2023-05-16T02:19:09;9.10;47.60
20284;DHT22;10301;50.832;4.080;2023-05-16T02:21:35;9.10;48.90
20284;DHT22;10301;50.832;4.080;2023-05-16T02:24:00;9.30;48.00
20284;DHT22;10301;50.832;4.080;2023-05-16T02:26:26;9.40;42.80
20284;DHT22;10301;50.832;4.080;2023-05-16T02:28:52;9.50;41.80
20284;DHT22;10301;50.832;4.080;2023-05-16T02:31:27;9.60;40.00
20284;DHT22;10301;50.832;4.080;2023-05-16T02:33:53;9.70;33.20
20284;DHT22;10301;50.832;4.080;2023-05-16T02:36:19;9.60;32.90
20284;DHT22;10301;50.832;4.080;2023-05-16T02:38:46;9.70;32.50
20284;DHT22;10301;50.832;4.080;2023-05-16T02:41:11;9.70;26.80
20284;DHT22;10301;50.832;4.080;2023-05-16T02:43:37;9.60;22.60
20284;DHT22;10301;50.832;4.080;2023-05-16T02:46:29;9.50;22.60
20284;DHT22;10301;50.832;4.080;2023-05-16T02:48:57;9.30;29.00
20284;DHT22;10301;50.832;4.080;2023-05-16T02:51:25;9.20;32.20
20284;DHT22;10301;50.832;4.080;2023-05-16T02:53:51;9.20;37.10
20284;DHT22;10301;50.832;4.080;2023-05-16T02:56:17;9.10;37.10
20284;DHT22;10301;50.832;4.080;2023-05-16T02:58:46;9.10;35.90
20284;DHT22;10301;50.832;4.080;2023-05-16T03:01:12;9.00;42.40
20284;DHT22;10301;50.832;4.080;2023-05-16T03:03:38;8.90;46.30
20284;DHT22;10301;50.832;4.080;2023-05-16T03:06:04;8.90;45.60
20284;DHT22;10301;50.832;4.080;2023-05-16T03:08:30;8.90;45.50
20284;DHT22;10301;50.832;4.080;2023-05-16T03:10:56;8.80;44.90
20284;DHT22;10301;50.832;4.080;2023-05-16T03:13:22;8.80;47.60
20284;DHT22;10301;50.832;4.080;2023-05-16T03:15:48;8.80;45.80
20284;DHT22;10301;50.832;4.080;2023-05-16T03:18:14;8.60;49.90
20284;DHT22;10301;50.832;4.080;2023-05-16T03:20:39;8.60;54.40
20284;DHT22;10301;50.832;4.080;2023-05-16T03:23:05;8.60;55.00
20284;DHT22;10301;50.832;4.080;2023-05-16T03:25:34;8.50;55.40
20284;DHT22;10301;50.832;4.080;2023-05-16T03:28:04;8.50;57.10
20284;DHT22;10301;50.832;4.080;2023-05-16T03:30:30;8.60;57.30
20284;DHT22;10301;50.832;4.080;2023-05-16T03:32:56;8.50;54.70
20284;DHT22;10301;50.832;4.080;2023-05-16T03:35:22;8.50;56.00
20284;DHT22;10301;50.832;4.080;2023-05-16T03:37:48;8.50;57.50
20284;DHT22;10301;50.832;4.080;2023-05-16T03:40:14;8.50;56.90
20284;DHT22;10301;50.832;4.080;2023-05-16T03:42:40;8.50;54.50
20284;DHT22;10301;50.832;4.080;2023-05-16T03:45:06;8.50;55.70
20284;DHT22;10301;50.832;4.080;2023-05-16T03:47:32;8.40;57.60
20284;DHT22;10301;50.832;4.080;2023-05-16T03:49:58;8.40;58.90
20284;DHT22;10301;50.832;4.080;2023-05-16T03:52:24;8.30;63.60
20284;DHT22;10301;50.832;4.080;2023-05-16T03:54:49;8.20;68.10
20284;DHT22;10301;50.832;4.080;2023-05-16T03:57:15;8.20;70.70
20284;DHT22;10301;50.832;4.080;2023-05-16T03:59:41;8.20;70.90
20284;DHT22;10301;50.832;4.080;2023-05-16T04:02:07;8.20;70.10
20284;DHT22;10301;50.832;4.080;2023-05-16T04:04:33;8.20;70.90
20284;DHT22;10301;50.832;4.080;2023-05-16T04:07:00;8.20;68.90
20284;DHT22;10301;50.832;4.080;2023-05-16T04:09:25;8.20;65.70
20284;DHT22;10301;50.832;4.080;2023-05-16T04:11:51;8.10;68.10
20284;DHT22;10301;50.832;4.080;2023-05-16T04:14:17;8.20;68.40
20284;DHT22;10301;50.832;4.080;2023-05-16T04:16:42;8.20;67.20
20284;DHT22;10301;50.832;4.080;2023-05-16T04:19:08;8.20;68.50
20284;DHT22;10301;50.832;4.080;2023-05-16T04:21:34;8.20;68.90
20284;DHT22;10301;50.832;4.080;2023-05-16T04:24:00;8.10;72.80
20284;DHT22;10301;50.832;4.080;2023-05-16T04:26:26;8.10;75.30
20284;DHT22;10301;50.832;4.080;2023-05-16T04:28:52;8.20;77.80
20284;DHT22;10301;50.832;4.080;2023-05-16T04:31:18;8.20;77.70
20284;DHT22;10301;50.832;4.080;2023-05-16T04:33:44;8.40;75.10
20284;DHT22;10301;50.832;4.080;2023-05-16T04:36:10;8.60;72.20
20284;DHT22;10301;50.832;4.080;2023-05-16T04:38:36;8.60;64.30
20284;DHT22;10301;50.832;4.080;2023-05-16T04:41:02;8.50;63.20
20284;DHT22;10301;50.832;4.080;2023-05-16T04:43:28;8.60;61.00
20284;DHT22;10301;50.832;4.080;2023-05-16T04:45:54;8.60;59.60
20284;DHT22;10301;50.832;4.080;2023-05-16T04:48:20;8.60;59.40
20284;DHT22;10301;50.832;4.080;2023-05-16T04:50:45;8.50;59.60
20284;DHT22;10301;50.832;4.080;2023-05-16T04:53:11;8.60;63.10
20284;DHT22;10301;50.832;4.080;2023-05-16T04:55:39;8.60;61.10
20284;DHT22;10301;50.832;4.080;2023-05-16T04:58:05;8.70;61.70
20284;DHT22;10301;50.832;4.080;2023-05-16T05:00:31;8.70;59.50
20284;DHT22;10301;50.832;4.080;2023-05-16T05:02:56;8.80;55.80
20284;DHT22;10301;50.832;4.080;2023-05-16T05:05:22;8.90;53.20
20284;DHT22;10301;50.832;4.080;2023-05-16T05:07:48;8.90;48.80
20284;DHT22;10301;50.832;4.080;2023-05-16T05:10:13;9.00;49.30
20284;DHT22;10301;50.832;4.080;2023-05-16T05:12:39;9.10;44.90
20284;DHT22;10301;50.832;4.080;2023-05-16T05:15:05;9.30;42.00
20284;DHT22;10301;50.832;4.080;2023-05-16T05:17:31;9.30;37.20
20284;DHT22;10301;50.832;4.080;2023-05-16T05:19:57;9.40;33.00
20284;DHT22;10301;50.832;4.080;2023-05-16T05:22:22;9.50;27.90
20284;DHT22;10301;50.832;4.080;2023-05-16T05:24:48;9.60;23.90
20284;DHT22;10301;50.832;4.080;2023-05-16T05:27:14;9.70;20.80
20284;DHT22;10301;50.832;4.080;2023-05-16T05:29:40;9.80;18.30
20284;DHT22;10301;50.832;4.080;2023-05-16T05:32:06;10.00;11.40
20284;DHT22;10301;50.832;4.080;2023-05-16T05:34:32;10.20;1.00
20284;DHT22;10301;50.832;4.080;2023-05-16T05:36:58;10.20;1.00
20284;DHT22;10301;50.832;4.080;2023-05-16T05:39:24;10.30;1.00
20284;DHT22;10301;50.832;4.080;2023-05-16T05:41:50;10.50;1.00
20284;DHT22;10301;50.832;4.080;2023-05-16T05:44:16;10.60;1.00
20284;DHT22;10301;50.832;4.080;2023-05-16T05:46:42;10.70;1.00
20284;DHT22;10301;50.832;4.080;2023-05-16T05:49:08;10.90;1.00
20284;DHT22;10301;50.832;4.080;2023-05-16T05:51:33;11.00;1.00
20284;DHT22;10301;50.832;4.080;2023-05-16T05:54:00;11.00;1.00
20284;DHT22;10301;50.832;4.080;2023-05-16T05:56:26;11.00;1.00
20284;DHT22;10301;50.832;4.080;2023-05-16T05:58:52;11.10;1.00
20284;DHT22;10301;50.832;4.080;2023-05-16T06:01:18;11.20;1.00
20284;DHT22;10301;50.832;4.080;2023-05-16T06:03:45;11.10;1.00
20284;DHT22;10301;50.832;4.080;2023-05-16T06:06:11;11.30;1.00
20284;DHT22;10301;50.832;4.080;2023-05-16T06:08:37;11.30;1.00
20284;DHT22;10301;50.832;4.080;2023-05-16T06:11:02;11.40;1.00
20284;DHT22;10301;50.832;4.080;2023-05-16T06:13:28;11.70;1.00
20284;DHT22;10301;50.832;4.080;2023-05-16T06:15:54;11.80;1.00
20284;DHT22;10301;50.832;4.080;2023-05-16T06:18:20;12.00;1.00
20284;DHT22;10301;50.832;4.080;2023-05-16T06:20:46;12.10;1.00
20284;DHT22;10301;50.832;4.080;2023-05-16T06:23:11;11.80;1.00
20284;DHT22;10301;50.832;4.080;2023-05-16T06:25:37;11.90;1.00
20284;DHT22;10301;50.832;4.080;2023-05-16T06:28:03;11.70;1.00
20284;DHT22;10301;50.832;4.080;2023-05-16T06:30:29;11.80;1.00
20284;DHT22;10301;50.832;4.080;2023-05-16T06:32:54;11.70;1.00
20284;DHT22;10301;50.832;4.080;2023-05-16T06:35:20;12.00;1.00
20284;DHT22;10301;50.832;4.080;2023-05-16T06:37:46;12.10;1.00
20284;DHT22;10301;50.832;4.080;2023-05-16T06:40:12;12.30;1.00
20284;DHT22;10301;50.832;4.080;2023-05-16T06:42:38;12.50;1.00
20284;DHT22;10301;50.832;4.080;2023-05-16T06:45:04;12.40;1.00
20284;DHT22;10301;50.832;4.080;2023-05-16T06:47:30;12.50;1.00
20284;DHT22;10301;50.832;4.080;2023-05-16T06:49:56;11.80;1.00
20284;DHT22;10301;50.832;4.080;2023-05-16T06:52:21;11.80;1.00
20284;DHT22;10301;50.832;4.080;2023-05-16T06:54:47;12.00;1.00
20284;DHT22;10301;50.832;4.080;2023-05-16T06:57:13;11.90;1.00
20284;DHT22;10301;50.832;4.080;2023-05-16T06:59:39;11.90;1.00
20284;DHT22;10301;50.832;4.080;2023-05-16T07:02:05;12.20;1.00
20284;DHT22;10301;50.832;4.080;2023-05-16T07:04:31;12.60;1.00
20284;DHT22;10301;50.832;4.080;2023-05-16T07:06:57;12.60;1.00
20284;DHT22;10301;50.832;4.080;2023-05-16T07:09:23;12.80;1.00
20284;DHT22;10301;50.832;4.080;2023-05-16T07:11:48;12.70;1.00
20284;DHT22;10301;50.832;4.080;2023-05-16T07:14:14;12.80;1.00
20284;DHT22;10301;50.832;4.080;2023-05-16T07:16:40;13.10;1.00
20284;DHT22;10301;50.832;4.080;2023-05-16T07:19:06;13.20;99.90
20284;DHT22;10301;50.832;4.080;2023-05-16T07:21:32;13.00;1.00
20284;DHT22;10301;50.832;4.080;2023-05-16T07:23:58;12.60;1.00
20284;DHT22;10301;50.832;4.080;2023-05-16T07:26:23;13.00;1.00
20284;DHT22;10301;50.832;4.080;2023-05-16T07:28:49;13.50;1.00
20284;DHT22;10301;50.832;4.080;2023-05-16T07:31:15;13.50;99.90
20284;DHT22;10301;50.832;4.080;2023-05-16T07:33:41;13.40;1.00
20284;DHT22;10301;50.832;4.080;2023-05-16T07:36:07;13.20;1.00
20284;DHT22;10301;50.832;4.080;2023-05-16T07:38:33;12.90;1.00
20284;DHT22;10301;50.832;4.080;2023-05-16T07:41:00;12.60;1.00
20284;DHT22;10301;50.832;4.080;2023-05-16T07:43:25;12.70;1.00
20284;DHT22;10301;50.832;4.080;2023-05-16T07:45:51;12.60;1.00
20284;DHT22;10301;50.832;4.080;2023-05-16T07:48:17;12.80;1.00
20284;DHT22;10301;50.832;4.080;2023-05-16T07:50:43;13.10;1.00
20284;DHT22;10301;50.832;4.080;2023-05-16T07:53:09;13.50;99.90
20284;DHT22;10301;50.832;4.080;2023-05-16T07:55:34;13.90;1.00
20284;DHT22;10301;50.832;4.080;2023-05-16T07:58:00;13.80;1.00
20284;DHT22;10301;50.832;4.080;2023-05-16T08:00:26;13.90;1.00
20284;DHT22;10301;50.832;4.080;2023-05-16T08:02:52;14.30;1.00
20284;DHT22;10301;50.832;4.080;2023-05-16T08:05:17;14.30;99.90
20284;DHT22;10301;50.832;4.080;2023-05-16T08:07:43;14.10;99.90
20284;DHT22;10301;50.832;4.080;2023-05-16T08:10:09;13.90;1.00
20284;DHT22;10301;50.832;4.080;2023-05-16T08:12:35;13.70;1.00
20284;DHT22;10301;50.832;4.080;2023-05-16T08:15:01;13.10;68.40
20284;DHT22;10301;50.832;4.080;2023-05-16T08:17:27;13.20;99.90
20284;DHT22;10301;50.832;4.080;2023-05-16T08:19:53;13.00;95.40
20284;DHT22;10301;50.832;4.080;2023-05-16T08:22:18;12.40;1.00
20284;DHT22;10301;50.832;4.080;2023-05-16T08:24:44;12.50;1.00
20284;DHT22;10301;50.832;4.080;2023-05-16T08:27:10;12.60;1.00
20284;DHT22;10301;50.832;4.080;2023-05-16T08:29:36;12.40;1.00
20284;DHT22;10301;50.832;4.080;2023-05-16T08:32:02;12.40;1.00
20284;DHT22;10301;50.832;4.080;2023-05-16T08:34:30;12.40;1.00
20284;DHT22;10301;50.832;4.080;2023-05-16T08:36:56;12.60;1.00
20284;DHT22;10301;50.832;4.080;2023-05-16T08:39:22;12.80;99.90
20284;DHT22;10301;50.832;4.080;2023-05-16T08:41:47;12.80;99.90
20284;DHT22;10301;50.832;4.080;2023-05-16T08:44:14;12.90;99.90
20284;DHT22;10301;50.832;4.080;2023-05-16T08:46:50;13.30;99.90
20284;DHT22;10301;50.832;4.080;2023-05-16T08:49:17;13.70;1.00
20284;DHT22;10301;50.832;4.080;2023-05-16T08:51:45;14.20;99.90
20284;DHT22;10301;50.832;4.080;2023-05-16T08:54:13;14.50;99.90
20284;DHT22;10301;50.832;4.080;2023-05-16T08:56:40;14.70;99.90
20284;DHT22;10301;50.832;4.080;2023-05-16T08:59:06;14.90;99.90
20284;DHT22;10301;50.832;4.080;2023-05-16T09:01:33;14.70;1.00
20284;DHT22;10301;50.832;4.080;2023-05-16T09:03:59;14.20;1.00
20284;DHT22;10301;50.832;4.080;2023-05-16T09:06:26;14.20;99.90
20284;DHT22;10301;50.832;4.080;2023-05-16T09:08:55;14.30;38.70
20284;DHT22;10301;50.832;4.080;2023-05-16T09:11:21;14.40;1.00
20284;DHT22;10301;50.832;4.080;2023-05-16T09:13:47;14.30;1.00
20284;DHT22;10301;50.832;4.080;2023-05-16T09:16:20;14.00;99.90
20284;DHT22;10301;50.832;4.080;2023-05-16T09:19:00;13.70;1.00
20284;DHT22;10301;50.832;4.080;2023-05-16T09:21:33;13.90;99.90
20284;DHT22;10301;50.832;4.080;2023-05-16T09:24:04;13.60;99.90
20284;DHT22;10301;50.832;4.080;2023-05-16T09:26:32;13.60;1.00
20284;DHT22;10301;50.832;4.080;2023-05-16T09:28:58;13.60;59.40
20284;DHT22;10301;50.832;4.080;2023-05-16T09:31:25;13.80;99.90
20284;DHT22;10301;50.832;4.080;2023-05-16T09:34:00;13.60;99.90
20284;DHT22;10301;50.832;4.080;2023-05-16T09:36:25;14.00;1.00
20284;DHT22;10301;50.832;4.080;2023-05-16T09:38:51;14.40;1.00
20284;DHT22;10301;50.832;4.080;2023-05-16T09:41:17;14.90;1.00
20284;DHT22;10301;50.832;4.080;2023-05-16T09:43:43;15.50;99.90
20284;DHT22;10301;50.832;4.080;2023-05-16T09:46:13;15.60;1.00
20284;DHT22;10301;50.832;4.080;2023-05-16T09:48:45;15.10;99.90
20284;DHT22;10301;50.832;4.080;2023-05-16T09:51:12;15.00;99.90
20284;DHT22;10301;50.832;4.080;2023-05-16T09:53:38;14.90;99.90
20284;DHT22;10301;50.832;4.080;2023-05-16T09:56:05;14.40;1.00
20284;DHT22;10301;50.832;4.080;2023-05-16T09:58:34;14.20;99.90
20284;DHT22;10301;50.832;4.080;2023-05-16T10:01:01;14.40;36.40
20284;DHT22;10301;50.832;4.080;2023-05-16T10:03:27;14.70;1.00
20284;DHT22;10301;50.832;4.080;2023-05-16T10:05:53;14.90;99.90
20284;DHT22;10301;50.832;4.080;2023-05-16T10:08:21;14.90;1.00
20284;DHT22;10301;50.832;4.080;2023-05-16T10:10:50;14.90;1.00
20284;DHT22;10301;50.832;4.080;2023-05-16T10:13:19;15.10;1.00
20284;DHT22;10301;50.832;4.080;2023-05-16T10:15:46;15.20;99.90
20284;DHT22;10301;50.832;4.080;2023-05-16T10:18:13;14.70;1.00
20284;DHT22;10301;50.832;4.080;2023-05-16T10:20:44;15.10;99.90
20284;DHT22;10301;50.832;4.080;2023-05-16T10:23:13;15.50;99.90
20284;DHT22;10301;50.832;4.080;2023-05-16T10:25:40;15.50;46.10
20284;DHT22;10301;50.832;4.080;2023-05-16T10:28:07;15.70;99.90
20284;DHT22;10301;50.832;4.080;2023-05-16T10:30:33;15.80;79.60
20284;DHT22;10301;50.832;4.080;2023-05-16T10:33:02;15.40;99.90
20284;DHT22;10301;50.832;4.080;2023-05-16T10:35:33;14.90;1.00
20284;DHT22;10301;50.832;4.080;2023-05-16T10:37:59;15.00;1.00
20284;DHT22;10301;50.832;4.080;2023-05-16T10:40:26;15.20;1.00
20284;DHT22;10301;50.832;4.080;2023-05-16T10:42:57;15.30;1.00
20284;DHT22;10301;50.832;4.080;2023-05-16T10:45:23;15.70;1.00
20284;DHT22;10301;50.832;4.080;2023-05-16T10:53:15;15.80;1.00
20284;DHT22;10301;50.832;4.080;2023-05-16T10:58:43;15.90;1.00
20284;DHT22;10301;50.832;4.080;2023-05-16T11:01:15;15.90;1.00
20284;DHT22;10301;50.832;4.080;2023-05-16T11:04:08;16.10;1.00
20284;DHT22;10301;50.832;4.080;2023-05-16T11:11:53;16.10;99.90
20284;DHT22;10301;50.832;4.080;2023-05-16T11:14:23;16.00;1.00
20284;DHT22;10301;50.832;4.080;2023-05-16T11:17:11;16.10;1.00
20284;DHT22;10301;50.832;4.080;2023-05-16T11:22:09;16.40;99.90
20284;DHT22;10301;50.832;4.080;2023-05-16T11:24:37;16.60;1.00
20284;DHT22;10301;50.832;4.080;2023-05-16T11:27:03;16.50;1.00
20284;DHT22;10301;50.832;4.080;2023-05-16T11:29:34;16.40;1.00
20284;DHT22;10301;50.832;4.080;2023-05-16T11:32:04;16.20;1.00
20284;DHT22;10301;50.832;4.080;2023-05-16T11:34:31;16.20;99.90
20284;DHT22;10301;50.832;4.080;2023-05-16T11:37:00;16.30;1.00
20284;DHT22;10301;50.832;4.080;2023-05-16T11:39:28;16.60;99.90
20284;DHT22;10301;50.832;4.080;2023-05-16T11:41:55;17.10;99.90
20284;DHT22;10301;50.832;4.080;2023-05-16T11:44:20;17.10;1.00
20284;DHT22;10301;50.832;4.080;2023-05-16T11:46:46;17.20;1.00
20284;DHT22;10301;50.832;4.080;2023-05-16T11:49:12;17.10;1.00
20284;DHT22;10301;50.832;4.080;2023-05-16T11:51:41;16.90;99.90
20284;DHT22;10301;50.832;4.080;2023-05-16T11:54:11;16.70;99.90
20284;DHT22;10301;50.832;4.080;2023-05-16T11:56:38;16.30;39.10
20284;DHT22;10301;50.832;4.080;2023-05-16T11:59:05;16.60;1.00
20284;DHT22;10301;50.832;4.080;2023-05-16T12:01:38;16.60;1.00
20284;DHT22;10301;50.832;4.080;2023-05-16T12:04:08;16.60;1.00
20284;DHT22;10301;50.832;4.080;2023-05-16T12:06:35;16.90;99.90
20284;DHT22;10301;50.832;4.080;2023-05-16T12:09:02;16.70;99.90
20284;DHT22;10301;50.832;4.080;2023-05-16T12:11:36;16.90;1.00
20284;DHT22;10301;50.832;4.080;2023-05-16T12:14:03;17.00;1.00
20284;DHT22;10301;50.832;4.080;2023-05-16T12:16:29;17.10;1.00
20284;DHT22;10301;50.832;4.080;2023-05-16T12:18:56;16.90;1.00
20284;DHT22;10301;50.832;4.080;2023-05-16T12:21:22;16.80;1.00
20284;DHT22;10301;50.832;4.080;2023-05-16T12:23:47;16.70;1.00
20284;DHT22;10301;50.832;4.080;2023-05-16T12:26:13;16.90;1.00
20284;DHT22;10301;50.832;4.080;2023-05-16T12:28:38;17.10;1.00
20284;DHT22;10301;50.832;4.080;2023-05-16T12:31:17;17.40;1.00
20284;DHT22;10301;50.832;4.080;2023-05-16T12:33:44;17.70;99.90
20284;DHT22;10301;50.832;4.080;2023-05-16T12:36:13;16.60;99.90
20284;DHT22;10301;50.832;4.080;2023-05-16T12:38:41;16.80;1.00
20284;DHT22;10301;50.832;4.080;2023-05-16T12:41:10;17.10;10.40
20284;DHT22;10301;50.832;4.080;2023-05-16T12:43:36;17.20;99.90
20284;DHT22;10301;50.832;4.080;2023-05-16T12:46:01;17.40;99.90
20284;DHT22;10301;50.832;4.080;2023-05-16T12:48:34;17.50;99.90
20284;DHT22;10301;50.832;4.080;2023-05-16T12:51:14;17.30;99.90
20284;DHT22;10301;50.832;4.080;2023-05-16T12:53:44;17.50;99.90
20284;DHT22;10301;50.832;4.080;2023-05-16T12:56:11;16.90;1.00
20284;DHT22;10301;50.832;4.080;2023-05-16T12:58:38;16.30;99.90
20284;DHT22;10301;50.832;4.080;2023-05-16T13:01:04;16.70;1.00
20284;DHT22;10301;50.832;4.080;2023-05-16T13:03:31;17.00;99.90
20284;DHT22;10301;50.832;4.080;2023-05-16T13:05:57;17.20;99.90
20284;DHT22;10301;50.832;4.080;2023-05-16T13:08:23;16.90;1.00
20284;DHT22;10301;50.832;4.080;2023-05-16T13:10:49;16.80;1.00
20284;DHT22;10301;50.832;4.080;2023-05-16T13:13:16;16.90;1.00
20284;DHT22;10301;50.832;4.080;2023-05-16T13:15:46;17.20;99.90
20284;DHT22;10301;50.832;4.080;2023-05-16T13:18:12;17.30;1.00
20284;DHT22;10301;50.832;4.080;2023-05-16T13:20:38;17.40;99.90
20284;DHT22;10301;50.832;4.080;2023-05-16T13:23:04;17.50;99.90
20284;DHT22;10301;50.832;4.080;2023-05-16T13:25:30;17.40;99.90
20284;DHT22;10301;50.832;4.080;2023-05-16T13:27:57;17.80;99.90
20284;DHT22;10301;50.832;4.080;2023-05-16T13:30:23;17.80;99.90
20284;DHT22;10301;50.832;4.080;2023-05-16T13:32:49;17.40;99.90
20284;DHT22;10301;50.832;4.080;2023-05-16T13:35:16;17.40;99.90
20284;DHT22;10301;50.832;4.080;2023-05-16T13:37:42;17.20;99.90
20284;DHT22;10301;50.832;4.080;2023-05-16T13:40:08;17.20;99.90
20284;DHT22;10301;50.832;4.080;2023-05-16T13:42:35;17.40;1.00
20284;DHT22;10301;50.832;4.080;2023-05-16T13:45:05;17.50;99.90
20284;DHT22;10301;50.832;4.080;2023-05-16T13:47:30;17.20;99.90
20284;DHT22;10301;50.832;4.080;2023-05-16T13:49:59;17.20;1.00
20284;DHT22;10301;50.832;4.080;2023-05-16T13:52:30;17.60;99.90
20284;DHT22;10301;50.832;4.080;2023-05-16T13:54:56;17.90;99.90
20284;DHT22;10301;50.832;4.080;2023-05-16T13:57:22;17.90;1.00
20284;DHT22;10301;50.832;4.080;2023-05-16T13:59:48;17.50;1.00
20284;DHT22;10301;50.832;4.080;2023-05-16T14:02:13;17.50;99.90
20284;DHT22;10301;50.832;4.080;2023-05-16T14:04:39;17.60;99.90
20284;DHT22;10301;50.832;4.080;2023-05-16T14:07:05;17.50;99.90
20284;DHT22;10301;50.832;4.080;2023-05-16T14:09:31;17.90;1.00
20284;DHT22;10301;50.832;4.080;2023-05-16T14:11:59;17.80;1.00
20284;DHT22;10301;50.832;4.080;2023-05-16T14:14:27;17.60;9.40
20284;DHT22;10301;50.832;4.080;2023-05-16T14:16:52;17.40;99.90
20284;DHT22;10301;50.832;4.080;2023-05-16T14:19:18;17.60;99.90
20284;DHT22;10301;50.832;4.080;2023-05-16T14:21:44;17.80;1.00
20284;DHT22;10301;50.832;4.080;2023-05-16T14:24:09;17.60;1.00
20284;DHT22;10301;50.832;4.080;2023-05-16T14:26:36;17.80;1.00
20284;DHT22;10301;50.832;4.080;2023-05-16T14:29:01;17.70;1.00
20284;DHT22;10301;50.832;4.080;2023-05-16T14:31:28;17.90;1.00
20284;DHT22;10301;50.832;4.080;2023-05-16T14:33:54;17.80;44.80
20284;DHT22;10301;50.832;4.080;2023-05-16T14:36:20;17.70;99.90
20284;DHT22;10301;50.832;4.080;2023-05-16T14:38:45;17.60;99.90
20284;DHT22;10301;50.832;4.080;2023-05-16T14:41:13;17.70;99.90
20284;DHT22;10301;50.832;4.080;2023-05-16T14:43:39;17.70;45.30
20284;DHT22;10301;50.832;4.080;2023-05-16T14:46:05;17.40;99.90
20284;DHT22;10301;50.832;4.080;2023-05-16T14:48:30;17.20;99.90
20284;DHT22;10301;50.832;4.080;2023-05-16T14:50:56;17.20;99.90
20284;DHT22;10301;50.832;4.080;2023-05-16T14:53:21;17.20;99.90
20284;DHT22;10301;50.832;4.080;2023-05-16T14:55:47;17.20;1.00
20284;DHT22;10301;50.832;4.080;2023-05-16T14:58:14;17.50;99.90
20284;DHT22;10301;50.832;4.080;2023-05-16T15:00:40;17.10;99.90
20284;DHT22;10301;50.832;4.080;2023-05-16T15:03:05;17.00;1.00
20284;DHT22;10301;50.832;4.080;2023-05-16T15:05:31;17.20;99.90
20284;DHT22;10301;50.832;4.080;2023-05-16T15:07:57;17.30;99.90
20284;DHT22;10301;50.832;4.080;2023-05-16T15:10:23;16.80;1.00
20284;DHT22;10301;50.832;4.080;2023-05-16T15:12:48;17.20;1.00
20284;DHT22;10301;50.832;4.080;2023-05-16T15:15:14;17.30;1.00
20284;DHT22;10301;50.832;4.080;2023-05-16T15:17:40;17.30;1.00
20284;DHT22;10301;50.832;4.080;2023-05-16T15:20:08;17.40;99.90
20284;DHT22;10301;50.832;4.080;2023-05-16T15:22:35;17.00;1.00
20284;DHT22;10301;50.832;4.080;2023-05-16T15:25:01;17.10;1.00
20284;DHT22;10301;50.832;4.080;2023-05-16T15:27:27;16.40;1.00
20284;DHT22;10301;50.832;4.080;2023-05-16T15:29:53;16.30;1.00
20284;DHT22;10301;50.832;4.080;2023-05-16T15:32:18;16.60;1.00
20284;DHT22;10301;50.832;4.080;2023-05-16T15:34:44;17.00;1.00
20284;DHT22;10301;50.832;4.080;2023-05-16T15:37:10;17.30;1.00
20284;DHT22;10301;50.832;4.080;2023-05-16T15:39:35;17.70;99.90
20284;DHT22;10301;50.832;4.080;2023-05-16T15:42:01;17.50;99.90
20284;DHT22;10301;50.832;4.080;2023-05-16T15:44:31;17.60;99.90
20284;DHT22;10301;50.832;4.080;2023-05-16T15:46:56;17.60;1.00
20284;DHT22;10301;50.832;4.080;2023-05-16T15:49:22;17.60;1.00
20284;DHT22;10301;50.832;4.080;2023-05-16T15:51:48;18.00;99.90
20284;DHT22;10301;50.832;4.080;2023-05-16T15:54:14;17.90;99.90
20284;DHT22;10301;50.832;4.080;2023-05-16T15:56:40;18.00;1.00
20284;DHT22;10301;50.832;4.080;2023-05-16T15:59:05;18.10;1.00
20284;DHT22;10301;50.832;4.080;2023-05-16T16:01:31;18.20;99.90
20284;DHT22;10301;50.832;4.080;2023-05-16T16:03:57;18.00;99.90
20284;DHT22;10301;50.832;4.080;2023-05-16T16:06:22;17.40;99.90
20284;DHT22;10301;50.832;4.080;2023-05-16T16:08:48;17.40;1.00